KHNB/HNB METAR and TAF weather

Enter ICAO airport designator
Station Type Date Time Source
KHNB METAR 2020/04/05 20:56 UTC NOAA

KHNB 052056Z AUTO 33008KT 10SM BKN090 16/11 A3009 RMK AO2 SLP189 T01610111 56013


Station Type Date Time Source
KHNB Decoded METAR 2020/04/05 20:56 UTC NOAA

Huntingburg, IN, United States (KHNB) 38-15N 086-57W
Apr 05, 2020 - 04:56 PM EDT / 2020.04.05 2056 UTC
Wind: from the NNW (330 degrees) at 9 MPH (8 KT):0
Visibility: 10 mile(s):0
Sky conditions: mostly cloudy
Temperature: 61.0 F (16.1 C)
Dew Point: 52.0 F (11.1 C)
Relative Humidity: 72%
Pressure (altimeter): 30.09 in. Hg (1018 hPa)
Pressure tendency: 0.04 inches (1.3 hPa) lower than three hours ago
ob: KHNB 052056Z AUTO 33008KT 10SM BKN090 16/11 A3009 RMK AO2 SLP189 T01610111 56013
cycle: 21

Station Type Date Time Source
KHNB TAF 2020/04/05 20:36 UTC NOAA

TAF
AMD KHNB 051934Z 0520/0618 35004KT P6SM BKN035
FM052300 VRB03KT P6SM BKN040
TEMPO 0609/0612 5SM BR

Example: see airport list